sensor_id;sensor_type;location;lat;lon;timestamp;P1;durP1;ratioP1;P2;durP2;ratioP2
74624;SDS011;63131;52.298;8.056;2023-03-04T00:00:45;15.52;;;2.05;;
74624;SDS011;63131;52.298;8.056;2023-03-04T00:03:11;10.05;;;2.25;;
74624;SDS011;63131;52.298;8.056;2023-03-04T00:05:39;9.43;;;3.17;;
74624;SDS011;63131;52.298;8.056;2023-03-04T00:08:05;14.65;;;2.45;;
74624;SDS011;63131;52.298;8.056;2023-03-04T00:10:30;15.73;;;2.83;;
74624;SDS011;63131;52.298;8.056;2023-03-04T00:12:55;7.90;;;1.90;;
74624;SDS011;63131;52.298;8.056;2023-03-04T00:15:21;10.45;;;2.90;;
74624;SDS011;63131;52.298;8.056;2023-03-04T00:17:46;12.25;;;2.63;;
74624;SDS011;63131;52.298;8.056;2023-03-04T00:20:11;12.98;;;2.17;;
74624;SDS011;63131;52.298;8.056;2023-03-04T00:22:37;9.75;;;1.85;;
74624;SDS011;63131;52.298;8.056;2023-03-04T00:25:02;9.18;;;1.98;;
74624;SDS011;63131;52.298;8.056;2023-03-04T00:27:28;11.38;;;2.88;;
74624;SDS011;63131;52.298;8.056;2023-03-04T00:29:54;12.23;;;1.98;;
74624;SDS011;63131;52.298;8.056;2023-03-04T00:32:20;10.45;;;2.17;;
74624;SDS011;63131;52.298;8.056;2023-03-04T00:34:45;10.50;;;2.15;;
74624;SDS011;63131;52.298;8.056;2023-03-04T00:37:10;9.43;;;2.45;;
74624;SDS011;63131;52.298;8.056;2023-03-04T00:39:35;12.95;;;2.20;;
74624;SDS011;63131;52.298;8.056;2023-03-04T00:42:01;10.07;;;1.98;;
74624;SDS011;63131;52.298;8.056;2023-03-04T00:44:26;9.20;;;2.03;;
74624;SDS011;63131;52.298;8.056;2023-03-04T00:46:51;11.50;;;2.08;;
74624;SDS011;63131;52.298;8.056;2023-03-04T00:49:17;8.32;;;1.75;;
74624;SDS011;63131;52.298;8.056;2023-03-04T00:51:42;10.45;;;2.28;;
74624;SDS011;63131;52.298;8.056;2023-03-04T00:54:07;10.50;;;1.90;;
74624;SDS011;63131;52.298;8.056;2023-03-04T00:56:32;11.65;;;2.28;;
74624;SDS011;63131;52.298;8.056;2023-03-04T00:58:58;8.20;;;2.15;;
74624;SDS011;63131;52.298;8.056;2023-03-04T01:01:23;10.32;;;1.95;;
74624;SDS011;63131;52.298;8.056;2023-03-04T01:03:48;9.13;;;2.05;;
74624;SDS011;63131;52.298;8.056;2023-03-04T01:06:14;9.63;;;1.75;;
74624;SDS011;63131;52.298;8.056;2023-03-04T01:08:39;10.43;;;1.88;;
74624;SDS011;63131;52.298;8.056;2023-03-04T01:11:05;9.95;;;2.00;;
74624;SDS011;63131;52.298;8.056;2023-03-04T01:13:30;16.05;;;2.10;;
74624;SDS011;63131;52.298;8.056;2023-03-04T01:15:56;7.80;;;1.45;;
74624;SDS011;63131;52.298;8.056;2023-03-04T01:18:21;7.50;;;2.17;;
74624;SDS011;63131;52.298;8.056;2023-03-04T01:20:47;6.93;;;1.60;;
74624;SDS011;63131;52.298;8.056;2023-03-04T01:23:12;9.80;;;1.50;;
74624;SDS011;63131;52.298;8.056;2023-03-04T01:25:38;10.70;;;1.88;;
74624;SDS011;63131;52.298;8.056;2023-03-04T01:28:03;10.65;;;2.85;;
74624;SDS011;63131;52.298;8.056;2023-03-04T01:30:29;11.95;;;2.08;;
74624;SDS011;63131;52.298;8.056;2023-03-04T01:32:54;7.85;;;1.48;;
74624;SDS011;63131;52.298;8.056;2023-03-04T01:35:19;6.35;;;1.45;;
74624;SDS011;63131;52.298;8.056;2023-03-04T01:37:45;7.78;;;1.65;;
74624;SDS011;63131;52.298;8.056;2023-03-04T01:40:11;7.53;;;1.65;;
74624;SDS011;63131;52.298;8.056;2023-03-04T01:42:37;6.88;;;1.70;;
74624;SDS011;63131;52.298;8.056;2023-03-04T01:45:03;6.22;;;1.80;;
74624;SDS011;63131;52.298;8.056;2023-03-04T01:47:30;9.73;;;1.80;;
74624;SDS011;63131;52.298;8.056;2023-03-04T01:49:56;7.93;;;1.67;;
74624;SDS011;63131;52.298;8.056;2023-03-04T01:52:22;8.82;;;1.70;;
74624;SDS011;63131;52.298;8.056;2023-03-04T01:54:48;9.13;;;1.88;;
74624;SDS011;63131;52.298;8.056;2023-03-04T01:57:18;11.18;;;2.38;;
74624;SDS011;63131;52.298;8.056;2023-03-04T01:59:45;11.35;;;1.90;;
74624;SDS011;63131;52.298;8.056;2023-03-04T02:02:11;8.88;;;1.60;;
74624;SDS011;63131;52.298;8.056;2023-03-04T02:04:37;8.23;;;1.83;;
74624;SDS011;63131;52.298;8.056;2023-03-04T02:07:03;6.28;;;1.85;;
74624;SDS011;63131;52.298;8.056;2023-03-04T02:09:29;10.27;;;2.00;;
74624;SDS011;63131;52.298;8.056;2023-03-04T02:11:55;14.30;;;2.67;;
74624;SDS011;63131;52.298;8.056;2023-03-04T02:14:20;8.23;;;1.50;;
74624;SDS011;63131;52.298;8.056;2023-03-04T02:16:46;9.23;;;1.80;;
74624;SDS011;63131;52.298;8.056;2023-03-04T02:19:14;8.35;;;1.80;;
74624;SDS011;63131;52.298;8.056;2023-03-04T02:21:44;5.40;;;1.50;;
74624;SDS011;63131;52.298;8.056;2023-03-04T02:24:12;15.88;;;1.67;;
74624;SDS011;63131;52.298;8.056;2023-03-04T02:26:42;11.23;;;2.15;;
74624;SDS011;63131;52.298;8.056;2023-03-04T02:29:11;6.75;;;1.50;;
74624;SDS011;63131;52.298;8.056;2023-03-04T02:31:39;6.65;;;1.50;;
74624;SDS011;63131;52.298;8.056;2023-03-04T02:34:06;8.40;;;1.52;;
74624;SDS011;63131;52.298;8.056;2023-03-04T02:36:36;12.15;;;2.17;;
74624;SDS011;63131;52.298;8.056;2023-03-04T02:39:03;8.35;;;1.90;;
74624;SDS011;63131;52.298;8.056;2023-03-04T02:41:31;8.15;;;1.52;;
74624;SDS011;63131;52.298;8.056;2023-03-04T02:43:57;8.70;;;1.48;;
74624;SDS011;63131;52.298;8.056;2023-03-04T02:46:22;7.75;;;1.60;;
74624;SDS011;63131;52.298;8.056;2023-03-04T02:48:48;10.65;;;1.75;;
74624;SDS011;63131;52.298;8.056;2023-03-04T02:51:14;10.77;;;1.83;;
74624;SDS011;63131;52.298;8.056;2023-03-04T02:53:40;10.07;;;1.92;;
74624;SDS011;63131;52.298;8.056;2023-03-04T02:56:05;5.95;;;1.65;;
74624;SDS011;63131;52.298;8.056;2023-03-04T02:58:31;9.73;;;1.67;;
74624;SDS011;63131;52.298;8.056;2023-03-04T03:00:57;6.28;;;1.70;;
74624;SDS011;63131;52.298;8.056;2023-03-04T03:03:22;6.18;;;1.80;;
74624;SDS011;63131;52.298;8.056;2023-03-04T03:05:47;9.73;;;2.10;;
74624;SDS011;63131;52.298;8.056;2023-03-04T03:08:13;10.25;;;2.20;;
74624;SDS011;63131;52.298;8.056;2023-03-04T03:10:38;10.95;;;1.95;;
74624;SDS011;63131;52.298;8.056;2023-03-04T03:13:04;8.63;;;2.28;;
74624;SDS011;63131;52.298;8.056;2023-03-04T03:15:29;7.80;;;2.33;;
74624;SDS011;63131;52.298;8.056;2023-03-04T03:17:55;11.90;;;2.00;;
74624;SDS011;63131;52.298;8.056;2023-03-04T03:20:20;12.60;;;2.03;;
74624;SDS011;63131;52.298;8.056;2023-03-04T03:22:46;8.68;;;1.70;;
74624;SDS011;63131;52.298;8.056;2023-03-04T03:25:12;7.97;;;2.10;;
74624;SDS011;63131;52.298;8.056;2023-03-04T03:27:38;8.45;;;2.22;;
74624;SDS011;63131;52.298;8.056;2023-03-04T03:30:04;8.55;;;1.77;;
74624;SDS011;63131;52.298;8.056;2023-03-04T03:34:55;4.43;;;1.60;;
74624;SDS011;63131;52.298;8.056;2023-03-04T03:37:20;9.60;;;1.80;;
74624;SDS011;63131;52.298;8.056;2023-03-04T03:39:46;5.53;;;1.33;;
74624;SDS011;63131;52.298;8.056;2023-03-04T03:42:11;8.95;;;2.97;;
74624;SDS011;63131;52.298;8.056;2023-03-04T03:44:36;9.95;;;1.92;;
74624;SDS011;63131;52.298;8.056;2023-03-04T03:47:02;6.40;;;1.33;;
74624;SDS011;63131;52.298;8.056;2023-03-04T03:49:28;8.10;;;1.50;;
74624;SDS011;63131;52.298;8.056;2023-03-04T03:51:53;7.82;;;1.52;;
74624;SDS011;63131;52.298;8.056;2023-03-04T03:54:18;4.80;;;1.30;;
74624;SDS011;63131;52.298;8.056;2023-03-04T03:56:44;11.23;;;1.55;;
74624;SDS011;63131;52.298;8.056;2023-03-04T03:59:09;5.28;;;2.28;;
74624;SDS011;63131;52.298;8.056;2023-03-04T04:01:35;5.65;;;1.50;;
74624;SDS011;63131;52.298;8.056;2023-03-04T04:04:00;6.40;;;1.60;;
74624;SDS011;63131;52.298;8.056;2023-03-04T04:06:25;6.07;;;1.73;;
74624;SDS011;63131;52.298;8.056;2023-03-04T04:08:51;6.15;;;1.30;;
74624;SDS011;63131;52.298;8.056;2023-03-04T04:11:17;8.68;;;1.48;;
74624;SDS011;63131;52.298;8.056;2023-03-04T04:13:42;6.65;;;1.08;;
74624;SDS011;63131;52.298;8.056;2023-03-04T04:16:08;8.88;;;1.52;;
74624;SDS011;63131;52.298;8.056;2023-03-04T04:18:34;4.25;;;1.10;;
74624;SDS011;63131;52.298;8.056;2023-03-04T04:20:59;6.82;;;1.27;;
74624;SDS011;63131;52.298;8.056;2023-03-04T04:23:25;6.05;;;1.42;;
74624;SDS011;63131;52.298;8.056;2023-03-04T04:25:50;8.88;;;2.50;;
74624;SDS011;63131;52.298;8.056;2023-03-04T04:28:15;10.05;;;1.50;;
74624;SDS011;63131;52.298;8.056;2023-03-04T04:30:41;9.30;;;1.55;;
74624;SDS011;63131;52.298;8.056;2023-03-04T04:33:06;7.97;;;1.00;;
74624;SDS011;63131;52.298;8.056;2023-03-04T04:35:32;8.80;;;1.40;;
74624;SDS011;63131;52.298;8.056;2023-03-04T04:37:59;10.02;;;3.22;;
74624;SDS011;63131;52.298;8.056;2023-03-04T04:40:25;8.25;;;1.30;;
74624;SDS011;63131;52.298;8.056;2023-03-04T04:42:50;8.90;;;1.50;;
74624;SDS011;63131;52.298;8.056;2023-03-04T04:45:16;9.23;;;2.22;;
74624;SDS011;63131;52.298;8.056;2023-03-04T04:47:41;18.45;;;2.53;;
74624;SDS011;63131;52.298;8.056;2023-03-04T04:50:07;5.70;;;1.45;;
74624;SDS011;63131;52.298;8.056;2023-03-04T04:52:33;4.30;;;1.10;;
74624;SDS011;63131;52.298;8.056;2023-03-04T04:54:58;9.43;;;1.80;;
74624;SDS011;63131;52.298;8.056;2023-03-04T04:57:23;5.30;;;1.15;;
74624;SDS011;63131;52.298;8.056;2023-03-04T04:59:49;5.53;;;1.50;;
74624;SDS011;63131;52.298;8.056;2023-03-04T05:02:14;8.35;;;1.58;;
74624;SDS011;63131;52.298;8.056;2023-03-04T05:04:39;5.28;;;1.10;;
74624;SDS011;63131;52.298;8.056;2023-03-04T05:07:05;7.28;;;1.75;;
74624;SDS011;63131;52.298;8.056;2023-03-04T05:09:30;6.07;;;1.10;;
74624;SDS011;63131;52.298;8.056;2023-03-04T05:11:55;7.63;;;1.45;;
74624;SDS011;63131;52.298;8.056;2023-03-04T05:14:21;9.57;;;1.90;;
74624;SDS011;63131;52.298;8.056;2023-03-04T05:16:46;11.10;;;2.63;;
74624;SDS011;63131;52.298;8.056;2023-03-04T05:19:12;8.73;;;2.00;;
74624;SDS011;63131;52.298;8.056;2023-03-04T05:21:37;9.93;;;2.65;;
74624;SDS011;63131;52.298;8.056;2023-03-04T05:24:02;7.57;;;2.00;;
74624;SDS011;63131;52.298;8.056;2023-03-04T05:26:28;8.50;;;1.63;;
74624;SDS011;63131;52.298;8.056;2023-03-04T05:28:53;6.35;;;1.30;;
74624;SDS011;63131;52.298;8.056;2023-03-04T05:31:19;6.07;;;1.48;;
74624;SDS011;63131;52.298;8.056;2023-03-04T05:33:44;5.90;;;1.25;;
74624;SDS011;63131;52.298;8.056;2023-03-04T05:36:09;8.45;;;2.17;;
74624;SDS011;63131;52.298;8.056;2023-03-04T05:38:34;9.15;;;2.08;;
74624;SDS011;63131;52.298;8.056;2023-03-04T05:41:01;9.43;;;1.67;;
74624;SDS011;63131;52.298;8.056;2023-03-04T05:43:28;4.50;;;1.45;;
74624;SDS011;63131;52.298;8.056;2023-03-04T05:45:54;7.60;;;1.65;;
74624;SDS011;63131;52.298;8.056;2023-03-04T05:48:19;5.18;;;1.45;;
74624;SDS011;63131;52.298;8.056;2023-03-04T05:50:45;4.35;;;1.15;;
74624;SDS011;63131;52.298;8.056;2023-03-04T05:53:10;8.77;;;1.63;;
74624;SDS011;63131;52.298;8.056;2023-03-04T05:55:36;6.60;;;1.98;;
74624;SDS011;63131;52.298;8.056;2023-03-04T05:58:01;10.82;;;2.28;;
74624;SDS011;63131;52.298;8.056;2023-03-04T06:00:26;7.25;;;1.73;;
74624;SDS011;63131;52.298;8.056;2023-03-04T06:02:52;11.30;;;1.92;;
74624;SDS011;63131;52.298;8.056;2023-03-04T06:05:17;7.97;;;1.52;;
74624;SDS011;63131;52.298;8.056;2023-03-04T06:07:44;10.30;;;1.80;;
74624;SDS011;63131;52.298;8.056;2023-03-04T06:10:10;8.32;;;1.60;;
74624;SDS011;63131;52.298;8.056;2023-03-04T06:12:37;7.90;;;2.33;;
74624;SDS011;63131;52.298;8.056;2023-03-04T06:15:02;4.20;;;1.17;;
74624;SDS011;63131;52.298;8.056;2023-03-04T06:17:30;5.78;;;1.02;;
74624;SDS011;63131;52.298;8.056;2023-03-04T06:19:56;6.15;;;1.58;;
74624;SDS011;63131;52.298;8.056;2023-03-04T06:22:21;6.75;;;1.70;;
74624;SDS011;63131;52.298;8.056;2023-03-04T06:24:47;5.70;;;1.42;;
74624;SDS011;63131;52.298;8.056;2023-03-04T06:27:12;5.30;;;1.67;;
74624;SDS011;63131;52.298;8.056;2023-03-04T06:29:38;10.45;;;1.65;;
74624;SDS011;63131;52.298;8.056;2023-03-04T06:32:03;7.72;;;2.17;;
74624;SDS011;63131;52.298;8.056;2023-03-04T06:34:29;10.30;;;1.30;;
74624;SDS011;63131;52.298;8.056;2023-03-04T06:36:55;7.18;;;1.40;;
74624;SDS011;63131;52.298;8.056;2023-03-04T06:39:23;5.75;;;1.50;;
74624;SDS011;63131;52.298;8.056;2023-03-04T06:41:48;10.27;;;1.63;;
74624;SDS011;63131;52.298;8.056;2023-03-04T06:44:13;7.70;;;2.00;;
74624;SDS011;63131;52.298;8.056;2023-03-04T06:46:39;5.40;;;1.70;;
74624;SDS011;63131;52.298;8.056;2023-03-04T06:49:04;7.57;;;1.50;;
74624;SDS011;63131;52.298;8.056;2023-03-04T06:51:29;9.82;;;1.60;;
74624;SDS011;63131;52.298;8.056;2023-03-04T06:53:55;6.35;;;1.70;;
74624;SDS011;63131;52.298;8.056;2023-03-04T06:56:20;9.07;;;1.80;;
74624;SDS011;63131;52.298;8.056;2023-03-04T06:58:46;7.25;;;1.75;;
74624;SDS011;63131;52.298;8.056;2023-03-04T07:01:19;7.82;;;1.83;;
74624;SDS011;63131;52.298;8.056;2023-03-04T07:03:46;9.40;;;1.42;;
74624;SDS011;63131;52.298;8.056;2023-03-04T07:06:12;7.38;;;2.40;;
74624;SDS011;63131;52.298;8.056;2023-03-04T07:08:38;5.85;;;1.63;;
74624;SDS011;63131;52.298;8.056;2023-03-04T07:11:04;7.15;;;1.52;;
74624;SDS011;63131;52.298;8.056;2023-03-04T07:13:30;4.68;;;1.30;;
74624;SDS011;63131;52.298;8.056;2023-03-04T07:15:55;7.20;;;2.08;;
74624;SDS011;63131;52.298;8.056;2023-03-04T07:18:21;4.63;;;1.55;;
74624;SDS011;63131;52.298;8.056;2023-03-04T07:20:46;12.63;;;2.30;;
74624;SDS011;63131;52.298;8.056;2023-03-04T07:23:12;7.47;;;1.80;;
74624;SDS011;63131;52.298;8.056;2023-03-04T07:25:37;9.82;;;2.75;;
74624;SDS011;63131;52.298;8.056;2023-03-04T07:28:02;4.47;;;1.67;;
74624;SDS011;63131;52.298;8.056;2023-03-04T07:30:30;9.77;;;1.50;;
74624;SDS011;63131;52.298;8.056;2023-03-04T07:32:56;7.85;;;1.70;;
74624;SDS011;63131;52.298;8.056;2023-03-04T07:35:22;6.00;;;1.77;;
74624;SDS011;63131;52.298;8.056;2023-03-04T07:37:47;6.28;;;1.92;;
74624;SDS011;63131;52.298;8.056;2023-03-04T07:40:13;7.57;;;2.20;;
74624;SDS011;63131;52.298;8.056;2023-03-04T07:42:38;10.32;;;1.98;;
74624;SDS011;63131;52.298;8.056;2023-03-04T07:45:04;8.80;;;1.77;;
74624;SDS011;63131;52.298;8.056;2023-03-04T07:47:30;8.48;;;2.20;;
74624;SDS011;63131;52.298;8.056;2023-03-04T07:49:55;10.02;;;2.22;;
74624;SDS011;63131;52.298;8.056;2023-03-04T07:52:21;8.70;;;2.97;;
74624;SDS011;63131;52.298;8.056;2023-03-04T07:54:47;9.02;;;1.80;;
74624;SDS011;63131;52.298;8.056;2023-03-04T07:57:12;7.47;;;1.65;;
74624;SDS011;63131;52.298;8.056;2023-03-04T07:59:38;8.70;;;2.30;;
74624;SDS011;63131;52.298;8.056;2023-03-04T08:02:03;6.15;;;1.80;;
74624;SDS011;63131;52.298;8.056;2023-03-04T08:04:28;10.73;;;2.08;;
74624;SDS011;63131;52.298;8.056;2023-03-04T08:06:54;6.68;;;2.15;;
74624;SDS011;63131;52.298;8.056;2023-03-04T08:09:19;12.05;;;1.90;;
74624;SDS011;63131;52.298;8.056;2023-03-04T08:11:44;8.48;;;2.05;;
74624;SDS011;63131;52.298;8.056;2023-03-04T08:14:10;9.40;;;1.98;;
74624;SDS011;63131;52.298;8.056;2023-03-04T08:16:36;6.55;;;2.28;;
74624;SDS011;63131;52.298;8.056;2023-03-04T08:19:03;8.95;;;2.63;;
74624;SDS011;63131;52.298;8.056;2023-03-04T08:21:29;8.38;;;2.30;;
74624;SDS011;63131;52.298;8.056;2023-03-04T08:23:56;9.65;;;2.10;;
74624;SDS011;63131;52.298;8.056;2023-03-04T08:26:24;8.00;;;2.00;;
74624;SDS011;63131;52.298;8.056;2023-03-04T08:28:59;10.07;;;1.92;;
74624;SDS011;63131;52.298;8.056;2023-03-04T08:31:25;9.13;;;2.38;;
74624;SDS011;63131;52.298;8.056;2023-03-04T08:33:51;10.95;;;2.83;;
74624;SDS011;63131;52.298;8.056;2023-03-04T08:36:17;10.93;;;2.30;;
74624;SDS011;63131;52.298;8.056;2023-03-04T08:38:42;8.35;;;2.60;;
74624;SDS011;63131;52.298;8.056;2023-03-04T08:41:07;11.23;;;3.45;;
74624;SDS011;63131;52.298;8.056;2023-03-04T08:43:33;9.07;;;3.28;;
74624;SDS011;63131;52.298;8.056;2023-03-04T08:45:59;7.72;;;3.00;;
74624;SDS011;63131;52.298;8.056;2023-03-04T08:48:24;9.63;;;2.70;;
74624;SDS011;63131;52.298;8.056;2023-03-04T08:50:49;12.57;;;3.75;;
74624;SDS011;63131;52.298;8.056;2023-03-04T08:53:15;11.50;;;4.22;;
74624;SDS011;63131;52.298;8.056;2023-03-04T08:55:41;13.48;;;4.07;;
74624;SDS011;63131;52.298;8.056;2023-03-04T08:58:07;11.20;;;3.72;;
74624;SDS011;63131;52.298;8.056;2023-03-04T09:00:34;9.52;;;3.35;;
74624;SDS011;63131;52.298;8.056;2023-03-04T09:03:00;11.07;;;4.30;;
74624;SDS011;63131;52.298;8.056;2023-03-04T09:05:26;12.38;;;4.38;;
74624;SDS011;63131;52.298;8.056;2023-03-04T09:07:51;9.63;;;3.90;;
74624;SDS011;63131;52.298;8.056;2023-03-04T09:10:18;10.95;;;3.80;;
74624;SDS011;63131;52.298;8.056;2023-03-04T09:12:43;10.05;;;3.92;;
74624;SDS011;63131;52.298;8.056;2023-03-04T09:15:10;12.15;;;3.97;;
74624;SDS011;63131;52.298;8.056;2023-03-04T09:17:35;8.50;;;3.78;;
74624;SDS011;63131;52.298;8.056;2023-03-04T09:20:01;12.02;;;2.85;;
74624;SDS011;63131;52.298;8.056;2023-03-04T09:22:28;9.85;;;3.33;;
74624;SDS011;63131;52.298;8.056;2023-03-04T09:24:54;11.27;;;3.08;;
74624;SDS011;63131;52.298;8.056;2023-03-04T09:27:19;7.65;;;2.92;;
74624;SDS011;63131;52.298;8.056;2023-03-04T09:29:45;6.22;;;1.90;;
74624;SDS011;63131;52.298;8.056;2023-03-04T09:32:10;7.90;;;2.53;;
74624;SDS011;63131;52.298;8.056;2023-03-04T09:34:35;7.78;;;2.70;;
74624;SDS011;63131;52.298;8.056;2023-03-04T09:37:01;9.23;;;2.88;;
74624;SDS011;63131;52.298;8.056;2023-03-04T09:39:26;8.75;;;2.80;;
74624;SDS011;63131;52.298;8.056;2023-03-04T09:41:52;8.88;;;2.47;;
74624;SDS011;63131;52.298;8.056;2023-03-04T09:44:42;11.18;;;2.45;;
74624;SDS011;63131;52.298;8.056;2023-03-04T09:47:11;6.93;;;1.70;;
74624;SDS011;63131;52.298;8.056;2023-03-04T09:49:39;9.65;;;2.50;;
74624;SDS011;63131;52.298;8.056;2023-03-04T09:52:17;9.40;;;2.30;;
74624;SDS011;63131;52.298;8.056;2023-03-04T09:54:55;4.07;;;1.30;;
74624;SDS011;63131;52.298;8.056;2023-03-04T09:57:34;9.93;;;2.20;;
74624;SDS011;63131;52.298;8.056;2023-03-04T10:03:04;6.10;;;1.63;;
74624;SDS011;63131;52.298;8.056;2023-03-04T10:05:45;6.53;;;1.70;;
74624;SDS011;63131;52.298;8.056;2023-03-04T10:10:57;6.78;;;1.50;;
74624;SDS011;63131;52.298;8.056;2023-03-04T10:13:28;6.35;;;1.77;;
74624;SDS011;63131;52.298;8.056;2023-03-04T10:16:01;5.63;;;1.50;;
74624;SDS011;63131;52.298;8.056;2023-03-04T10:18:29;4.95;;;1.33;;
74624;SDS011;63131;52.298;8.056;2023-03-04T10:21:00;6.60;;;1.33;;
74624;SDS011;63131;52.298;8.056;2023-03-04T10:23:29;7.55;;;1.50;;
74624;SDS011;63131;52.298;8.056;2023-03-04T10:25:55;4.63;;;0.98;;
74624;SDS011;63131;52.298;8.056;2023-03-04T10:28:24;5.38;;;1.27;;
74624;SDS011;63131;52.298;8.056;2023-03-04T10:33:41;8.18;;;1.00;;
74624;SDS011;63131;52.298;8.056;2023-03-04T10:36:26;4.25;;;1.05;;
74624;SDS011;63131;52.298;8.056;2023-03-04T10:39:10;7.40;;;1.33;;
74624;SDS011;63131;52.298;8.056;2023-03-04T10:41:40;5.00;;;1.40;;
74624;SDS011;63131;52.298;8.056;2023-03-04T10:46:36;7.43;;;1.43;;
74624;SDS011;63131;52.298;8.056;2023-03-04T10:49:02;3.90;;;0.73;;
74624;SDS011;63131;52.298;8.056;2023-03-04T10:51:28;7.45;;;1.42;;
74624;SDS011;63131;52.298;8.056;2023-03-04T10:53:58;9.18;;;1.30;;
74624;SDS011;63131;52.298;8.056;2023-03-04T11:05:16;5.70;;;1.00;;
74624;SDS011;63131;52.298;8.056;2023-03-04T11:07:43;4.07;;;0.82;;
74624;SDS011;63131;52.298;8.056;2023-03-04T11:10:15;3.65;;;1.10;;
74624;SDS011;63131;52.298;8.056;2023-03-04T11:15:27;6.75;;;1.08;;
74624;SDS011;63131;52.298;8.056;2023-03-04T11:17:59;3.25;;;0.82;;
74624;SDS011;63131;52.298;8.056;2023-03-04T11:20:34;7.88;;;1.35;;
74624;SDS011;63131;52.298;8.056;2023-03-04T11:23:04;4.28;;;1.13;;
74624;SDS011;63131;52.298;8.056;2023-03-04T11:25:35;5.15;;;0.93;;
74624;SDS011;63131;52.298;8.056;2023-03-04T11:28:09;7.35;;;1.17;;
74624;SDS011;63131;52.298;8.056;2023-03-04T11:30:47;6.72;;;1.30;;
74624;SDS011;63131;52.298;8.056;2023-03-04T11:33:17;6.90;;;1.30;;
74624;SDS011;63131;52.298;8.056;2023-03-04T11:35:58;6.25;;;1.20;;
74624;SDS011;63131;52.298;8.056;2023-03-04T11:41:19;6.78;;;1.10;;
74624;SDS011;63131;52.298;8.056;2023-03-04T11:43:50;5.63;;;1.00;;
74624;SDS011;63131;52.298;8.056;2023-03-04T11:46:28;8.55;;;1.10;;
74624;SDS011;63131;52.298;8.056;2023-03-04T11:51:59;4.80;;;1.17;;
74624;SDS011;63131;52.298;8.056;2023-03-04T11:59:52;7.43;;;1.27;;
74624;SDS011;63131;52.298;8.056;2023-03-04T12:02:27;4.80;;;1.27;;
74624;SDS011;63131;52.298;8.056;2023-03-04T12:13:36;7.82;;;1.60;;
74624;SDS011;63131;52.298;8.056;2023-03-04T12:27:10;4.75;;;1.00;;
74624;SDS011;63131;52.298;8.056;2023-03-04T12:29:46;7.28;;;1.25;;
74624;SDS011;63131;52.298;8.056;2023-03-04T12:37:47;3.95;;;1.13;;
74624;SDS011;63131;52.298;8.056;2023-03-04T12:40:37;6.80;;;1.50;;
74624;SDS011;63131;52.298;8.056;2023-03-04T12:48:31;7.45;;;1.77;;
74624;SDS011;63131;52.298;8.056;2023-03-04T12:53:38;7.28;;;1.80;;
74624;SDS011;63131;52.298;8.056;2023-03-04T12:56:07;9.30;;;1.88;;
74624;SDS011;63131;52.298;8.056;2023-03-04T12:59:04;7.07;;;1.45;;
74624;SDS011;63131;52.298;8.056;2023-03-04T13:01:38;7.45;;;2.22;;
74624;SDS011;63131;52.298;8.056;2023-03-04T13:07:07;8.02;;;2.08;;
74624;SDS011;63131;52.298;8.056;2023-03-04T13:09:56;6.65;;;1.75;;
74624;SDS011;63131;52.298;8.056;2023-03-04T13:12:25;8.02;;;2.22;;
74624;SDS011;63131;52.298;8.056;2023-03-04T13:20:41;7.43;;;1.48;;
74624;SDS011;63131;52.298;8.056;2023-03-04T13:25:48;5.68;;;1.05;;
74624;SDS011;63131;52.298;8.056;2023-03-04T13:28:35;9.13;;;1.55;;
74624;SDS011;63131;52.298;8.056;2023-03-04T13:31:17;7.25;;;2.60;;
74624;SDS011;63131;52.298;8.056;2023-03-04T13:39:20;7.60;;;1.40;;
74624;SDS011;63131;52.298;8.056;2023-03-04T13:41:48;6.70;;;1.08;;
74624;SDS011;63131;52.298;8.056;2023-03-04T13:46:56;4.30;;;1.00;;
74624;SDS011;63131;52.298;8.056;2023-03-04T13:49:21;8.98;;;1.70;;
74624;SDS011;63131;52.298;8.056;2023-03-04T13:51:50;6.78;;;1.20;;
74624;SDS011;63131;52.298;8.056;2023-03-04T13:59:45;6.95;;;1.30;;
74624;SDS011;63131;52.298;8.056;2023-03-04T14:12:30;1.83;;;0.65;;
74624;SDS011;63131;52.298;8.056;2023-03-04T14:14:57;8.05;;;1.42;;
74624;SDS011;63131;52.298;8.056;2023-03-04T14:17:32;5.93;;;1.10;;
74624;SDS011;63131;52.298;8.056;2023-03-04T14:20:00;5.95;;;1.27;;
74624;SDS011;63131;52.298;8.056;2023-03-04T14:22:29;7.35;;;1.45;;
74624;SDS011;63131;52.298;8.056;2023-03-04T14:25:04;8.85;;;1.60;;
74624;SDS011;63131;52.298;8.056;2023-03-04T14:27:30;4.53;;;1.08;;
74624;SDS011;63131;52.298;8.056;2023-03-04T14:30:00;8.25;;;1.45;;
74624;SDS011;63131;52.298;8.056;2023-03-04T14:32:32;3.00;;;1.00;;
74624;SDS011;63131;52.298;8.056;2023-03-04T14:35:02;5.65;;;1.27;;
74624;SDS011;63131;52.298;8.056;2023-03-04T14:37:32;6.32;;;1.20;;
74624;SDS011;63131;52.298;8.056;2023-03-04T14:40:34;6.90;;;1.33;;
74624;SDS011;63131;52.298;8.056;2023-03-04T14:43:03;4.18;;;1.13;;
74624;SDS011;63131;52.298;8.056;2023-03-04T14:45:38;9.98;;;2.10;;
74624;SDS011;63131;52.298;8.056;2023-03-04T14:48:05;4.05;;;1.23;;
74624;SDS011;63131;52.298;8.056;2023-03-04T14:50:31;7.20;;;1.10;;
74624;SDS011;63131;52.298;8.056;2023-03-04T14:53:31;5.05;;;1.30;;
74624;SDS011;63131;52.298;8.056;2023-03-04T14:56:06;5.22;;;1.27;;
74624;SDS011;63131;52.298;8.056;2023-03-04T14:58:33;5.28;;;1.30;;
74624;SDS011;63131;52.298;8.056;2023-03-04T15:06:14;4.85;;;1.30;;
74624;SDS011;63131;52.298;8.056;2023-03-04T15:08:40;7.30;;;1.85;;
74624;SDS011;63131;52.298;8.056;2023-03-04T15:11:06;10.18;;;1.45;;
74624;SDS011;63131;52.298;8.056;2023-03-04T15:13:45;7.20;;;1.45;;
74624;SDS011;63131;52.298;8.056;2023-03-04T15:16:18;8.40;;;1.73;;
74624;SDS011;63131;52.298;8.056;2023-03-04T15:23:57;7.13;;;1.27;;
74624;SDS011;63131;52.298;8.056;2023-03-04T15:26:23;6.13;;;1.20;;
74624;SDS011;63131;52.298;8.056;2023-03-04T15:28:48;5.10;;;1.27;;
74624;SDS011;63131;52.298;8.056;2023-03-04T15:31:17;5.78;;;1.52;;
74624;SDS011;63131;52.298;8.056;2023-03-04T15:33:45;11.20;;;2.13;;
74624;SDS011;63131;52.298;8.056;2023-03-04T15:36:12;4.85;;;0.82;;
74624;SDS011;63131;52.298;8.056;2023-03-04T15:38:40;6.30;;;1.20;;
74624;SDS011;63131;52.298;8.056;2023-03-04T15:41:10;4.60;;;1.10;;
74624;SDS011;63131;52.298;8.056;2023-03-04T15:43:35;2.65;;;1.17;;
74624;SDS011;63131;52.298;8.056;2023-03-04T15:46:01;5.85;;;1.75;;
74624;SDS011;63131;52.298;8.056;2023-03-04T15:48:27;5.47;;;1.27;;
74624;SDS011;63131;52.298;8.056;2023-03-04T15:50:53;8.13;;;1.10;;
74624;SDS011;63131;52.298;8.056;2023-03-04T15:53:30;4.50;;;1.50;;
74624;SDS011;63131;52.298;8.056;2023-03-04T15:56:16;6.07;;;1.10;;
74624;SDS011;63131;52.298;8.056;2023-03-04T15:58:52;6.55;;;1.55;;
74624;SDS011;63131;52.298;8.056;2023-03-04T16:01:18;5.75;;;1.38;;
74624;SDS011;63131;52.298;8.056;2023-03-04T16:03:43;5.93;;;1.58;;
74624;SDS011;63131;52.298;8.056;2023-03-04T16:06:09;5.95;;;1.35;;
74624;SDS011;63131;52.298;8.056;2023-03-04T16:08:36;4.88;;;1.40;;
74624;SDS011;63131;52.298;8.056;2023-03-04T16:11:02;8.57;;;1.30;;
74624;SDS011;63131;52.298;8.056;2023-03-04T16:13:27;4.60;;;1.00;;
74624;SDS011;63131;52.298;8.056;2023-03-04T16:15:53;6.40;;;1.10;;
74624;SDS011;63131;52.298;8.056;2023-03-04T16:18:18;7.35;;;1.65;;
74624;SDS011;63131;52.298;8.056;2023-03-04T16:20:45;7.00;;;1.42;;
74624;SDS011;63131;52.298;8.056;2023-03-04T16:23:13;5.75;;;1.58;;
74624;SDS011;63131;52.298;8.056;2023-03-04T16:25:43;7.50;;;1.48;;
74624;SDS011;63131;52.298;8.056;2023-03-04T16:28:11;5.57;;;1.30;;
74624;SDS011;63131;52.298;8.056;2023-03-04T16:30:36;8.40;;;1.48;;
74624;SDS011;63131;52.298;8.056;2023-03-04T16:33:02;3.92;;;1.08;;
74624;SDS011;63131;52.298;8.056;2023-03-04T16:35:27;6.13;;;1.15;;
74624;SDS011;63131;52.298;8.056;2023-03-04T16:37:53;7.93;;;1.45;;
74624;SDS011;63131;52.298;8.056;2023-03-04T16:40:20;5.30;;;1.38;;
74624;SDS011;63131;52.298;8.056;2023-03-04T16:42:49;7.65;;;1.40;;